KZZV/ZZV METAR and TAF weather

Enter ICAO airport designator
Station Type Date Time Source
KZZV METAR 2022/01/29 09:53 UTC NOAA

KZZV 290953Z AUTO 32006KT 10SM CLR M16/M18 A3015 RMK AO2 SLP223 T11561178


Station Type Date Time Source
KZZV Decoded METAR 2022/01/29 09:53 UTC NOAA

ZANESVILLE MUNICIPAL AIRPORT , OH, United States (KZZV) 39-57N 81-54W 268M
Jan 29, 2022 - 04:53 AM EST / 2022.01.29 0953 UTC
Wind: from the NW (320 degrees) at 7 MPH (6 KT):0
Visibility: 10 mile(s):0
Sky conditions: clear
Temperature: 3.9 F (-15.6 C)
Windchill: -7 F (-22 C):2
Dew Point: -0.0 F (-17.8 C)
Relative Humidity: 83%
Pressure (altimeter): 30.15 in. Hg (1020 hPa)
ob: KZZV 290953Z AUTO 32006KT 10SM CLR M16/M18 A3015 RMK AO2 SLP223 T11561178
cycle: 10

Station Type Date Time Source
KZZV TAF 2022/01/29 06:22 UTC NOAA

TAF KZZV 290520Z 2906/3006 34006KT P6SM SKC
FM291800 31010KT P6SM BKN025
FM292300 31005KT P6SM SKC

Example: see airport list